createdAt,value
2019-03-01T00:00:40.523Z,0.00
2019-03-01T00:01:40.496Z,0.00
2019-03-01T00:02:40.488Z,0.00
2019-03-01T00:03:40.467Z,0.00
2019-03-01T00:04:40.452Z,0.00
2019-03-01T00:05:40.455Z,0.00
2019-03-01T00:06:40.432Z,0.00
2019-03-01T00:07:40.433Z,0.00
2019-03-01T00:08:40.407Z,0.00
2019-03-01T00:09:40.398Z,0.00
2019-03-01T00:10:40.402Z,0.00
2019-03-01T00:11:40.375Z,0.00
2019-03-01T00:12:40.377Z,0.00
2019-03-01T00:13:40.349Z,0.00
2019-03-01T00:14:40.339Z,0.00
2019-03-01T00:15:40.370Z,0.00
2019-03-01T00:16:40.322Z,0.00
2019-03-01T00:17:40.316Z,0.00
2019-03-01T00:18:40.301Z,0.00
2019-03-01T00:19:40.284Z,0.00
2019-03-01T00:20:40.294Z,0.00
2019-03-01T00:21:40.292Z,0.00
2019-03-01T00:22:40.251Z,0.00
2019-03-01T00:23:40.248Z,0.00
2019-03-01T00:24:40.257Z,0.00
2019-03-01T00:25:40.221Z,0.00
2019-03-01T00:26:40.237Z,0.00
2019-03-01T00:27:40.202Z,0.00
2019-03-01T00:28:40.207Z,0.00
2019-03-01T00:29:40.184Z,0.00
2019-03-01T00:30:40.177Z,0.00
2019-03-01T00:31:40.185Z,0.00
2019-03-01T00:32:40.153Z,0.00
2019-03-01T00:33:40.166Z,0.00
2019-03-01T00:34:40.126Z,0.00
2019-03-01T00:35:40.125Z,0.00
2019-03-01T00:36:40.124Z,0.00
2019-03-01T00:37:40.131Z,0.00
2019-03-01T00:38:40.082Z,0.00
2019-03-01T00:39:40.068Z,0.00
2019-03-01T00:40:40.058Z,0.00
2019-03-01T00:41:40.055Z,0.00
2019-03-01T00:42:40.059Z,0.00
2019-03-01T00:43:40.025Z,0.00
2019-03-01T00:44:40.025Z,0.00
2019-03-01T00:45:40.011Z,0.00
2019-03-01T00:46:39.999Z,0.00
2019-03-01T00:47:40.010Z,0.00
2019-03-01T00:48:39.987Z,0.00
2019-03-01T00:49:39.969Z,0.00
2019-03-01T00:50:39.945Z,0.00
2019-03-01T00:51:39.947Z,0.00
2019-03-01T00:52:39.967Z,0.00
2019-03-01T00:53:39.933Z,0.00
2019-03-01T00:54:39.925Z,0.00
2019-03-01T00:55:39.899Z,0.00
2019-03-01T00:56:39.886Z,0.00
2019-03-01T00:57:39.932Z,0.00
2019-03-01T00:58:39.862Z,0.00
2019-03-01T00:59:39.850Z,0.00
2019-03-01T01:00:39.855Z,0.00
2019-03-01T01:01:39.837Z,0.00
2019-03-01T01:02:39.819Z,0.00
2019-03-01T01:03:39.822Z,0.00
2019-03-01T01:04:39.799Z,0.00
2019-03-01T01:05:39.784Z,0.00
2019-03-01T01:06:39.784Z,0.00
2019-03-01T01:07:39.768Z,0.00
2019-03-01T01:08:39.776Z,0.00
2019-03-01T01:09:39.743Z,0.00
2019-03-01T01:10:39.737Z,0.00
2019-03-01T01:11:39.719Z,0.00
2019-03-01T01:12:39.706Z,0.00
2019-03-01T01:13:39.723Z,0.00
2019-03-01T01:14:39.705Z,0.00
2019-03-01T01:15:39.686Z,0.00
2019-03-01T01:16:39.668Z,0.00
2019-03-01T01:17:39.656Z,0.00
2019-03-01T01:18:39.664Z,0.00
2019-03-01T01:19:39.650Z,0.00
2019-03-01T01:20:39.619Z,0.00
2019-03-01T01:21:39.608Z,0.00
2019-03-01T01:22:39.605Z,0.00
2019-03-01T01:23:39.586Z,0.00
2019-03-01T01:24:39.601Z,0.00
2019-03-01T01:25:39.600Z,0.00
2019-03-01T01:26:39.558Z,0.00
2019-03-01T01:27:41.046Z,0.00
2019-03-01T01:28:39.535Z,0.00
2019-03-01T01:29:39.543Z,0.00
2019-03-01T01:30:39.511Z,0.00
2019-03-01T01:31:39.505Z,0.00
2019-03-01T01:32:39.548Z,0.00
2019-03-01T01:33:39.481Z,0.00
2019-03-01T01:34:39.471Z,0.00
2019-03-01T01:35:39.456Z,0.00
2019-03-01T01:36:39.456Z,0.00
2019-03-01T01:37:39.461Z,0.00
2019-03-01T01:38:39.422Z,0.00
2019-03-01T01:39:39.419Z,0.00
2019-03-01T01:40:39.411Z,0.00
2019-03-01T01:41:39.393Z,0.00
2019-03-01T01:42:39.411Z,0.00
2019-03-01T01:43:39.373Z,0.00
2019-03-01T01:44:39.358Z,0.00
2019-03-01T01:45:39.388Z,0.00
2019-03-01T01:46:39.353Z,0.00
2019-03-01T01:47:39.359Z,0.00
2019-03-01T01:48:39.316Z,0.00
2019-03-01T01:49:39.339Z,0.00
2019-03-01T01:50:39.295Z,0.00
2019-03-01T01:51:39.288Z,0.00
2019-03-01T01:52:39.274Z,0.00
2019-03-01T01:53:39.280Z,0.00
2019-03-01T01:54:39.250Z,0.00
2019-03-01T01:55:39.252Z,0.00
2019-03-01T01:56:39.229Z,0.00
2019-03-01T01:57:39.217Z,0.00
2019-03-01T01:58:39.280Z,0.00
2019-03-01T01:59:39.201Z,0.00
2019-03-01T02:00:39.189Z,0.00
2019-03-01T02:01:39.179Z,0.00
2019-03-01T02:02:39.164Z,0.00
2019-03-01T02:03:39.200Z,0.00
2019-03-01T02:04:39.173Z,0.00
2019-03-01T02:05:39.168Z,0.00
2019-03-01T02:06:39.118Z,0.00
2019-03-01T02:07:39.162Z,0.00
2019-03-01T02:08:39.128Z,0.00
2019-03-01T02:09:39.095Z,0.00
2019-03-01T02:10:39.110Z,0.00
2019-03-01T02:11:39.070Z,0.00
2019-03-01T02:12:39.096Z,0.00
2019-03-01T02:13:39.054Z,0.00
2019-03-01T02:14:39.067Z,0.00
2019-03-01T02:15:39.036Z,0.00
2019-03-01T02:16:39.013Z,0.00
2019-03-01T02:17:39.001Z,0.00
2019-03-01T02:18:39.039Z,0.00
2019-03-01T02:19:38.980Z,0.00
2019-03-01T02:20:38.983Z,0.00
2019-03-01T02:21:38.986Z,0.00
2019-03-01T02:22:38.956Z,0.00
2019-03-01T02:23:40.161Z,0.00
2019-03-01T02:24:38.934Z,0.00
2019-03-01T02:25:38.933Z,0.00
2019-03-01T02:26:38.908Z,0.00
2019-03-01T02:27:38.919Z,0.00
2019-03-01T02:28:38.922Z,0.00
2019-03-01T02:29:38.893Z,0.00
2019-03-01T02:30:38.880Z,0.00
2019-03-01T02:31:38.882Z,0.00
2019-03-01T02:32:38.855Z,0.00
2019-03-01T02:33:38.827Z,0.00
2019-03-01T02:34:38.842Z,0.00
2019-03-01T02:35:38.811Z,0.00
2019-03-01T02:36:38.809Z,0.00
2019-03-01T02:37:38.787Z,0.00
2019-03-01T02:38:38.793Z,0.00
2019-03-01T02:39:38.770Z,0.00
2019-03-01T02:40:38.757Z,0.00
2019-03-01T02:41:38.746Z,0.00
2019-03-01T02:42:38.748Z,0.00
2019-03-01T02:43:38.739Z,0.00
2019-03-01T02:44:38.711Z,0.00
2019-03-01T02:45:38.706Z,0.00
2019-03-01T02:46:38.687Z,0.00
2019-03-01T02:47:38.718Z,0.00
2019-03-01T02:48:38.669Z,0.00
2019-03-01T02:49:38.651Z,0.00
2019-03-01T02:50:38.670Z,0.00
2019-03-01T02:51:38.634Z,0.00
2019-03-01T02:52:38.626Z,0.00
2019-03-01T02:53:38.647Z,0.00
2019-03-01T02:54:38.626Z,0.00
2019-03-01T02:55:38.614Z,0.00
2019-03-01T02:56:38.610Z,0.00
2019-03-01T02:57:38.604Z,0.00
2019-03-01T02:58:38.575Z,0.00
2019-03-01T02:59:38.607Z,0.00
2019-03-01T03:00:38.598Z,0.00
2019-03-01T03:01:38.533Z,0.00
2019-03-01T03:02:38.535Z,0.00
2019-03-01T03:03:38.564Z,0.00
2019-03-01T03:04:38.529Z,0.00
2019-03-01T03:05:38.474Z,0.00
2019-03-01T03:06:38.473Z,0.00
2019-03-01T03:07:38.488Z,0.00
2019-03-01T03:08:38.489Z,0.00
2019-03-01T03:09:38.438Z,0.00
2019-03-01T03:10:38.420Z,0.00
2019-03-01T03:11:38.415Z,0.00
2019-03-01T03:12:38.459Z,0.00
2019-03-01T03:13:38.434Z,0.00
2019-03-01T03:14:38.413Z,0.00
2019-03-01T03:15:38.369Z,0.00
2019-03-01T03:16:38.395Z,0.00
2019-03-01T03:17:38.472Z,0.00
2019-03-01T03:18:38.345Z,0.00
2019-03-01T03:19:38.349Z,0.00
2019-03-01T03:20:38.322Z,0.00
2019-03-01T03:21:38.301Z,0.00
2019-03-01T03:22:38.379Z,0.00
2019-03-01T03:23:38.284Z,0.00
2019-03-01T03:24:38.307Z,0.00
2019-03-01T03:25:38.312Z,0.00
2019-03-01T03:26:38.264Z,0.00
2019-03-01T03:27:38.240Z,0.00
2019-03-01T03:28:38.238Z,0.00
2019-03-01T03:29:38.226Z,0.00
2019-03-01T03:30:38.233Z,0.00
2019-03-01T03:31:38.191Z,0.00
2019-03-01T03:32:38.187Z,0.00
2019-03-01T03:33:38.174Z,0.00
2019-03-01T03:34:38.166Z,0.00
2019-03-01T03:35:38.167Z,0.00
2019-03-01T03:36:38.163Z,0.00
2019-03-01T03:37:38.142Z,0.00
2019-03-01T03:38:38.116Z,0.00
2019-03-01T03:39:38.105Z,0.00
2019-03-01T03:40:38.123Z,0.00
2019-03-01T03:41:38.081Z,0.00
2019-03-01T03:42:38.074Z,0.00
2019-03-01T03:43:38.068Z,0.00
2019-03-01T03:44:38.066Z,0.00
2019-03-01T03:45:38.036Z,0.00
2019-03-01T03:46:38.062Z,0.00
2019-03-01T03:47:38.035Z,0.00
2019-03-01T03:48:38.004Z,0.00
2019-03-01T03:49:38.011Z,0.00
2019-03-01T03:50:37.993Z,0.00
2019-03-01T03:51:37.991Z,0.00
2019-03-01T03:52:37.964Z,0.00
2019-03-01T03:53:37.975Z,0.00
2019-03-01T03:54:38.018Z,0.00
2019-03-01T03:55:37.933Z,0.00
2019-03-01T03:56:37.954Z,0.00
2019-03-01T03:57:37.928Z,0.00
2019-03-01T03:58:37.907Z,0.00
2019-03-01T03:59:37.893Z,0.00
2019-03-01T04:00:37.875Z,0.00
2019-03-01T04:01:37.859Z,0.00
2019-03-01T04:02:37.882Z,0.00
2019-03-01T04:03:37.838Z,0.00
2019-03-01T04:04:37.845Z,0.00
2019-03-01T04:05:37.837Z,0.00
2019-03-01T04:06:37.806Z,0.00
2019-03-01T04:07:37.826Z,0.00
2019-03-01T04:08:37.825Z,0.00
2019-03-01T04:09:37.773Z,0.00
2019-03-01T04:10:37.768Z,0.00
2019-03-01T04:11:37.786Z,0.00
2019-03-01T04:12:37.783Z,0.00
2019-03-01T04:13:37.730Z,0.00
2019-03-01T04:14:37.739Z,0.00
2019-03-01T04:15:37.714Z,0.00
2019-03-01T04:16:37.706Z,0.00
2019-03-01T04:17:37.715Z,0.00
2019-03-01T04:18:37.699Z,0.00
2019-03-01T04:19:37.703Z,0.00
2019-03-01T04:20:37.655Z,0.00
2019-03-01T04:21:37.660Z,0.00
2019-03-01T04:22:37.703Z,0.00
2019-03-01T04:23:37.664Z,0.00
2019-03-01T04:24:37.613Z,0.00
2019-03-01T04:25:37.610Z,0.00
2019-03-01T04:26:37.591Z,0.00
2019-03-01T04:27:37.630Z,0.00
2019-03-01T04:28:37.597Z,0.00
2019-03-01T04:29:37.558Z,0.00
2019-03-01T04:30:37.558Z,0.00
2019-03-01T04:31:37.546Z,0.00
2019-03-01T04:32:37.523Z,0.00
2019-03-01T04:33:37.528Z,0.00
2019-03-01T04:34:37.526Z,0.00
2019-03-01T04:35:37.490Z,0.00
2019-03-01T04:36:37.483Z,0.00
2019-03-01T04:37:37.464Z,0.00
2019-03-01T04:38:37.462Z,0.00
2019-03-01T04:39:37.476Z,0.00
2019-03-01T04:40:37.443Z,0.00
2019-03-01T04:41:37.421Z,0.00
2019-03-01T04:42:37.414Z,0.00
2019-03-01T04:43:37.419Z,0.00
2019-03-01T04:44:37.462Z,0.00
2019-03-01T04:45:37.382Z,0.00
2019-03-01T04:46:37.370Z,0.00
2019-03-01T04:47:37.357Z,0.00
2019-03-01T04:48:37.349Z,0.00
2019-03-01T04:49:37.376Z,0.00
2019-03-01T04:50:37.355Z,0.00
2019-03-01T04:51:40.041Z,0.00
2019-03-01T04:52:37.303Z,0.00
2019-03-01T04:53:37.313Z,0.00
2019-03-01T04:54:37.279Z,0.00
2019-03-01T04:55:37.280Z,0.00
2019-03-01T04:56:37.255Z,0.00
2019-03-01T04:57:37.274Z,0.00
2019-03-01T04:58:37.252Z,0.00
2019-03-01T04:59:37.227Z,0.00
2019-03-01T05:00:37.211Z,0.00
2019-03-01T05:01:37.206Z,0.00
2019-03-01T05:02:37.209Z,0.00
2019-03-01T05:03:37.184Z,0.00
2019-03-01T05:04:37.176Z,0.00
2019-03-01T05:05:37.164Z,0.00
2019-03-01T05:06:37.148Z,0.00
2019-03-01T05:07:37.166Z,0.00
2019-03-01T05:08:37.141Z,0.00
2019-03-01T05:09:37.199Z,0.00
2019-03-01T05:10:37.114Z,0.00
2019-03-01T05:11:37.095Z,0.00
2019-03-01T05:12:37.080Z,0.00
2019-03-01T05:13:37.129Z,0.00
2019-03-01T05:14:37.059Z,0.00
2019-03-01T05:15:37.048Z,0.00
2019-03-01T05:16:37.038Z,0.00
2019-03-01T05:17:37.045Z,0.00
2019-03-01T05:18:37.035Z,0.00
2019-03-01T05:19:37.012Z,0.00
2019-03-01T05:20:37.014Z,0.00
2019-03-01T05:21:36.984Z,0.00
2019-03-01T05:22:36.969Z,0.00
2019-03-01T05:23:36.990Z,0.00
2019-03-01T05:24:36.969Z,0.00
2019-03-01T05:25:36.973Z,0.00
2019-03-01T05:26:36.928Z,0.00
2019-03-01T05:27:36.919Z,0.00
2019-03-01T05:28:36.920Z,0.00
2019-03-01T05:29:36.917Z,0.00
2019-03-01T05:30:36.887Z,0.00
2019-03-01T05:31:36.889Z,0.00
2019-03-01T05:32:36.890Z,0.00
2019-03-01T05:33:36.867Z,0.00
2019-03-01T05:34:36.855Z,0.00
2019-03-01T05:35:36.833Z,0.00
2019-03-01T05:36:36.823Z,0.00
2019-03-01T05:37:36.811Z,0.00
2019-03-01T05:38:36.800Z,0.00
2019-03-01T05:39:36.840Z,0.00
2019-03-01T05:40:36.786Z,0.00
2019-03-01T05:41:36.774Z,0.00
2019-03-01T05:42:36.749Z,0.00
2019-03-01T05:43:36.749Z,0.00
2019-03-01T05:44:36.765Z,0.00
2019-03-01T05:45:36.738Z,0.00
2019-03-01T05:46:36.704Z,0.00
2019-03-01T05:47:36.699Z,0.00
2019-03-01T05:48:36.687Z,0.00
2019-03-01T05:49:36.670Z,0.00
2019-03-01T05:50:36.698Z,0.00
2019-03-01T05:51:36.654Z,4.00
2019-03-01T05:52:36.651Z,4.00
2019-03-01T05:53:36.639Z,4.00
2019-03-01T05:54:36.622Z,4.00
2019-03-01T05:55:36.655Z,4.00
2019-03-01T05:56:36.601Z,0.00
2019-03-01T05:57:36.590Z,0.00
2019-03-01T05:58:36.578Z,4.00
2019-03-01T05:59:36.596Z,4.00
2019-03-01T06:00:36.568Z,4.00
2019-03-01T06:01:36.597Z,8.00
2019-03-01T06:02:36.533Z,4.00
2019-03-01T06:03:36.548Z,8.00
2019-03-01T06:04:36.511Z,4.00
2019-03-01T06:05:36.504Z,8.00
2019-03-01T06:06:36.529Z,8.00
2019-03-01T06:07:36.474Z,8.00
2019-03-01T06:08:36.477Z,12.00
2019-03-01T06:09:36.452Z,16.00
2019-03-01T06:10:36.443Z,16.00
2019-03-01T06:11:36.488Z,16.00
2019-03-01T06:12:36.423Z,20.00
2019-03-01T06:13:36.425Z,16.00
2019-03-01T06:14:36.400Z,20.00
2019-03-01T06:15:36.391Z,20.00
2019-03-01T06:16:36.403Z,20.00
2019-03-01T06:17:36.378Z,20.00
2019-03-01T06:18:36.352Z,24.00
2019-03-01T06:19:36.342Z,24.00
2019-03-01T06:20:36.342Z,24.00
2019-03-01T06:21:36.328Z,32.00
2019-03-01T06:22:36.337Z,28.00
2019-03-01T06:23:36.343Z,32.00
2019-03-01T06:24:36.293Z,32.00
2019-03-01T06:25:36.278Z,36.00
2019-03-01T06:26:36.280Z,36.00
2019-03-01T06:27:36.274Z,36.00
2019-03-01T06:28:36.251Z,36.00
2019-03-01T06:29:36.239Z,32.00
2019-03-01T06:30:36.224Z,36.00
2019-03-01T06:31:36.221Z,36.00
2019-03-01T06:32:36.226Z,40.00
2019-03-01T06:33:36.199Z,40.00
2019-03-01T06:34:36.280Z,40.00
2019-03-01T06:35:36.169Z,44.00
2019-03-01T06:36:36.160Z,44.00
2019-03-01T06:37:36.181Z,48.00
2019-03-01T06:38:36.135Z,48.00
2019-03-01T06:39:36.128Z,52.00
2019-03-01T06:40:36.116Z,56.00
2019-03-01T06:41:36.098Z,60.00
2019-03-01T06:42:36.089Z,68.00
2019-03-01T06:43:36.111Z,76.00
2019-03-01T06:44:36.088Z,76.00
2019-03-01T06:45:36.061Z,76.00
2019-03-01T06:46:36.052Z,76.00
2019-03-01T06:47:36.035Z,72.00
2019-03-01T06:48:36.027Z,76.00
2019-03-01T06:49:36.043Z,84.00
2019-03-01T06:50:36.006Z,92.00
2019-03-01T06:51:36.019Z,96.00
2019-03-01T06:52:36.011Z,104.00
2019-03-01T06:53:35.971Z,112.00
2019-03-01T06:54:35.959Z,120.00
2019-03-01T06:55:35.972Z,124.00
2019-03-01T06:56:35.954Z,136.00
2019-03-01T06:57:35.929Z,140.00
2019-03-01T06:58:35.917Z,144.00
2019-03-01T06:59:35.907Z,148.00
2019-03-01T07:00:35.920Z,148.00
2019-03-01T07:01:35.935Z,152.00
2019-03-01T07:02:35.878Z,152.00
2019-03-01T07:03:35.857Z,148.00
2019-03-01T07:04:35.850Z,148.00
2019-03-01T07:05:35.868Z,144.00
2019-03-01T07:06:35.824Z,144.00
2019-03-01T07:07:35.815Z,144.00
2019-03-01T07:08:35.809Z,148.00
2019-03-01T07:09:35.795Z,148.00
2019-03-01T07:10:35.798Z,148.00
2019-03-01T07:11:35.789Z,148.00
2019-03-01T07:12:35.770Z,152.00
2019-03-01T07:13:35.754Z,160.00
2019-03-01T07:14:35.741Z,168.00
2019-03-01T07:15:35.786Z,168.00
2019-03-01T07:16:35.716Z,176.00
2019-03-01T07:17:35.718Z,184.00
2019-03-01T07:18:35.699Z,192.00
2019-03-01T07:19:35.746Z,196.00
2019-03-01T07:20:35.678Z,196.00
2019-03-01T07:21:35.708Z,192.00
2019-03-01T07:22:35.658Z,188.00
2019-03-01T07:23:36.997Z,188.00
2019-03-01T07:24:35.631Z,184.00
2019-03-01T07:25:35.622Z,184.00
2019-03-01T07:26:35.645Z,184.00
2019-03-01T07:27:35.600Z,192.00
2019-03-01T07:28:35.634Z,196.00
2019-03-01T07:29:35.590Z,204.00
2019-03-01T07:30:35.566Z,200.00
2019-03-01T07:31:35.605Z,184.00
2019-03-01T07:32:35.562Z,172.00
2019-03-01T07:33:35.539Z,164.00
2019-03-01T07:34:35.520Z,164.00
2019-03-01T07:35:35.512Z,168.00
2019-03-01T07:36:35.561Z,188.00
2019-03-01T07:37:35.520Z,220.00
2019-03-01T07:38:35.479Z,236.00
2019-03-01T07:39:35.476Z,252.00
2019-03-01T07:40:35.456Z,256.00
2019-03-01T07:41:35.480Z,236.00
2019-03-01T07:42:35.458Z,212.00
2019-03-01T07:43:35.427Z,192.00
2019-03-01T07:44:35.484Z,176.00
2019-03-01T07:45:35.454Z,172.00
2019-03-01T07:46:35.416Z,172.00
2019-03-01T07:47:35.420Z,172.00
2019-03-01T07:48:35.368Z,172.00
2019-03-01T07:49:35.368Z,180.00
2019-03-01T07:50:35.348Z,188.00
2019-03-01T07:51:36.042Z,180.00
2019-03-01T07:52:35.333Z,184.00
2019-03-01T07:53:35.667Z,184.00
2019-03-01T07:54:36.302Z,180.00
2019-03-01T07:55:35.318Z,184.00
2019-03-01T07:56:36.908Z,180.00
2019-03-01T07:57:35.334Z,180.00
2019-03-01T07:58:35.260Z,180.00
2019-03-01T07:59:38.318Z,196.00
2019-03-01T08:00:35.247Z,204.00
2019-03-01T08:01:35.259Z,208.00
2019-03-01T08:02:35.964Z,220.00
2019-03-01T08:03:35.224Z,228.00
2019-03-01T08:04:35.226Z,252.00
2019-03-01T08:05:35.584Z,268.00
2019-03-01T08:06:35.191Z,280.00
2019-03-01T08:07:35.162Z,304.00
2019-03-01T08:08:39.052Z,328.00
2019-03-01T08:09:36.158Z,348.00
2019-03-01T08:10:35.135Z,372.00
2019-03-01T08:11:35.158Z,392.00
2019-03-01T08:12:35.124Z,408.00
2019-03-01T08:13:35.102Z,424.00
2019-03-01T08:14:35.097Z,424.00
2019-03-01T08:15:35.098Z,432.00
2019-03-01T08:16:35.069Z,440.00
2019-03-01T08:17:35.103Z,460.00
2019-03-01T08:18:35.055Z,468.00
2019-03-01T08:19:35.034Z,476.00
2019-03-01T08:20:35.033Z,488.00
2019-03-01T08:21:35.010Z,504.00
2019-03-01T08:22:47.317Z,516.00
2019-03-01T08:23:36.080Z,532.00
2019-03-01T08:24:34.985Z,528.00
2019-03-01T08:25:34.964Z,520.00
2019-03-01T08:26:35.011Z,516.00
2019-03-01T08:27:34.965Z,504.00
2019-03-01T08:28:34.933Z,496.00
2019-03-01T08:29:34.961Z,496.00
2019-03-01T08:30:34.917Z,484.00
2019-03-01T08:31:34.898Z,472.00
2019-03-01T08:32:34.963Z,480.00
2019-03-01T08:33:34.895Z,468.00
2019-03-01T08:34:35.347Z,452.00
2019-03-01T08:35:34.876Z,444.00
2019-03-01T08:36:34.878Z,440.00
2019-03-01T08:37:34.835Z,444.00
2019-03-01T08:38:35.006Z,456.00
2019-03-01T08:39:36.668Z,456.00
2019-03-01T08:40:34.807Z,468.00
2019-03-01T08:41:34.819Z,484.00
2019-03-01T08:42:36.424Z,512.00
2019-03-01T08:43:35.795Z,548.00
2019-03-01T08:44:34.761Z,576.00
2019-03-01T08:45:34.753Z,564.00
2019-03-01T08:46:34.777Z,588.00
2019-03-01T08:47:34.728Z,628.00
2019-03-01T08:48:34.909Z,696.00
2019-03-01T08:49:34.705Z,664.00
2019-03-01T08:50:34.703Z,600.00
2019-03-01T08:51:34.686Z,592.00
2019-03-01T08:52:37.197Z,676.00
2019-03-01T08:53:35.687Z,644.00
2019-03-01T08:54:34.665Z,740.00
2019-03-01T08:55:35.617Z,644.00
2019-03-01T08:56:34.642Z,588.00
2019-03-01T08:57:43.824Z,584.00
2019-03-01T08:58:37.581Z,596.00
2019-03-01T08:59:35.622Z,640.00
2019-03-01T09:00:34.583Z,628.00
2019-03-01T09:01:34.575Z,604.00
2019-03-01T09:02:34.619Z,620.00
2019-03-01T09:03:34.558Z,620.00
2019-03-01T09:04:37.876Z,636.00
2019-03-01T09:05:34.529Z,652.00
2019-03-01T09:06:34.519Z,712.00
2019-03-01T09:07:34.559Z,728.00
2019-03-01T09:08:34.519Z,764.00
2019-03-01T09:09:34.495Z,856.00
2019-03-01T09:10:34.533Z,844.00
2019-03-01T09:11:34.466Z,892.00
2019-03-01T09:12:34.472Z,864.00
2019-03-01T09:13:36.073Z,788.00
2019-03-01T09:14:34.448Z,800.00
2019-03-01T09:15:34.423Z,768.00
2019-03-01T09:16:34.411Z,740.00
2019-03-01T09:17:34.435Z,716.00
2019-03-01T09:18:34.386Z,724.00
2019-03-01T09:19:34.377Z,792.00
2019-03-01T09:20:38.417Z,756.00
2019-03-01T09:21:34.367Z,720.00
2019-03-01T09:22:34.349Z,664.00
2019-03-01T09:23:34.352Z,612.00
2019-03-01T09:24:34.321Z,584.00
2019-03-01T09:25:34.319Z,576.00
2019-03-01T09:26:35.623Z,580.00
2019-03-01T09:27:34.325Z,540.00
2019-03-01T09:28:38.441Z,512.00
2019-03-01T09:29:41.410Z,500.00
2019-03-01T09:30:35.262Z,456.00
2019-03-01T09:31:34.242Z,412.00
2019-03-01T09:32:34.877Z,404.00
2019-03-01T09:33:34.228Z,424.00
2019-03-01T09:34:34.220Z,432.00
2019-03-01T09:35:34.233Z,444.00
2019-03-01T09:36:34.193Z,484.00
2019-03-01T09:37:34.209Z,516.00
2019-03-01T09:38:34.178Z,528.00
2019-03-01T09:39:34.162Z,540.00
2019-03-01T09:40:34.149Z,552.00
2019-03-01T09:41:36.527Z,536.00
2019-03-01T09:42:35.186Z,468.00
2019-03-01T09:43:34.112Z,412.00
2019-03-01T09:44:34.592Z,392.00
2019-03-01T09:45:36.558Z,404.00
2019-03-01T09:46:34.084Z,448.00
2019-03-01T09:47:36.933Z,484.00
2019-03-01T09:48:34.087Z,464.00
2019-03-01T09:49:34.049Z,504.00
2019-03-01T09:50:34.578Z,532.00
2019-03-01T09:51:34.024Z,516.00
2019-03-01T09:52:34.011Z,512.00
2019-03-01T09:53:35.165Z,524.00
2019-03-01T09:54:33.999Z,532.00
2019-03-01T09:55:34.825Z,524.00
2019-03-01T09:56:34.001Z,508.00
2019-03-01T09:57:34.005Z,472.00
2019-03-01T09:58:34.033Z,468.00
2019-03-01T09:59:33.950Z,488.00
2019-03-01T10:00:33.931Z,496.00
2019-03-01T10:01:33.930Z,500.00
2019-03-01T10:02:33.908Z,512.00
2019-03-01T10:03:33.911Z,536.00
2019-03-01T10:04:33.920Z,560.00
2019-03-01T10:05:33.886Z,612.00
2019-03-01T10:06:38.066Z,664.00
2019-03-01T10:07:33.923Z,716.00
2019-03-01T10:08:33.844Z,764.00
2019-03-01T10:09:33.861Z,808.00
2019-03-01T10:10:33.815Z,852.00
2019-03-01T10:11:33.811Z,876.00
2019-03-01T10:12:33.808Z,872.00
2019-03-01T10:14:33.813Z,804.00
2019-03-01T10:15:33.765Z,772.00
2019-03-01T10:16:33.752Z,752.00
2019-03-01T10:17:33.740Z,732.00
2019-03-01T10:18:33.739Z,708.00
2019-03-01T10:19:33.748Z,668.00
2019-03-01T10:20:33.707Z,640.00
2019-03-01T10:21:33.697Z,612.00
2019-03-01T10:22:33.708Z,588.00
2019-03-01T10:23:33.684Z,572.00
2019-03-01T10:24:33.701Z,564.00
2019-03-01T10:25:33.657Z,548.00
2019-03-01T10:26:33.645Z,532.00
2019-03-01T10:27:33.630Z,512.00
2019-03-01T10:28:33.675Z,492.00
2019-03-01T10:29:33.606Z,468.00
2019-03-01T10:30:33.615Z,440.00
2019-03-01T10:31:33.596Z,424.00
2019-03-01T10:32:33.573Z,440.00
2019-03-01T10:33:33.571Z,480.00
2019-03-01T10:34:33.572Z,520.00
2019-03-01T10:35:33.548Z,548.00
2019-03-01T10:36:33.551Z,572.00
2019-03-01T10:37:33.526Z,600.00
2019-03-01T10:38:33.505Z,632.00
2019-03-01T10:39:33.536Z,656.00
2019-03-01T10:40:33.488Z,680.00
2019-03-01T10:41:33.483Z,708.00
2019-03-01T10:42:33.462Z,744.00
2019-03-01T10:43:33.460Z,776.00
2019-03-01T10:44:33.462Z,788.00
2019-03-01T10:45:33.482Z,768.00
2019-03-01T10:46:33.436Z,784.00
2019-03-01T10:47:33.414Z,788.00
2019-03-01T10:48:33.397Z,796.00
2019-03-01T10:49:41.006Z,816.00
2019-03-01T10:50:33.396Z,800.00
2019-03-01T10:51:33.365Z,720.00
2019-03-01T10:52:33.353Z,624.00
2019-03-01T10:53:33.357Z,536.00
2019-03-01T10:54:33.329Z,532.00
2019-03-01T10:55:33.362Z,568.00
2019-03-01T10:56:33.312Z,616.00
2019-03-01T10:57:33.301Z,700.00
2019-03-01T10:58:33.292Z,740.00
2019-03-01T10:59:33.325Z,760.00
2019-03-01T11:00:33.273Z,784.00
2019-03-01T11:01:33.264Z,760.00
2019-03-01T11:02:33.242Z,716.00
2019-03-01T11:03:33.234Z,640.00
2019-03-01T11:04:33.261Z,580.00
2019-03-01T11:05:33.461Z,504.00
2019-03-01T11:06:33.207Z,444.00
2019-03-01T11:07:33.193Z,392.00
2019-03-01T11:08:33.189Z,348.00
2019-03-01T11:09:33.171Z,336.00
2019-03-01T11:10:33.175Z,348.00
2019-03-01T11:11:33.172Z,352.00
2019-03-01T11:12:33.141Z,344.00
2019-03-01T11:13:33.129Z,340.00
2019-03-01T11:14:33.115Z,320.00
2019-03-01T11:15:33.134Z,312.00
2019-03-01T11:16:33.098Z,352.00
2019-03-01T11:17:33.082Z,408.00
2019-03-01T11:18:33.076Z,436.00
2019-03-01T11:19:33.079Z,452.00
2019-03-01T11:20:33.061Z,448.00
2019-03-01T11:21:33.074Z,476.00
2019-03-01T11:22:33.033Z,520.00
2019-03-01T11:23:33.013Z,564.00
2019-03-01T11:24:33.015Z,580.00
2019-03-01T11:25:32.999Z,584.00
2019-03-01T11:26:33.001Z,632.00
2019-03-01T11:27:32.982Z,644.00
2019-03-01T11:28:32.959Z,652.00
2019-03-01T11:29:32.946Z,628.00
2019-03-01T11:30:32.949Z,568.00
2019-03-01T11:31:32.956Z,492.00
2019-03-01T11:32:32.923Z,424.00
2019-03-01T11:33:32.919Z,412.00
2019-03-01T11:34:32.903Z,456.00
2019-03-01T11:35:32.886Z,468.00
2019-03-01T11:36:32.905Z,436.00
2019-03-01T11:37:32.859Z,452.00
2019-03-01T11:38:32.857Z,464.00
2019-03-01T11:39:32.850Z,412.00
2019-03-01T11:40:32.828Z,300.00
2019-03-01T11:41:32.840Z,208.00
2019-03-01T11:42:32.822Z,164.00
2019-03-01T11:43:32.792Z,148.00
2019-03-01T11:44:32.801Z,152.00
2019-03-01T11:45:32.772Z,168.00
2019-03-01T11:46:32.763Z,204.00
2019-03-01T11:47:32.775Z,236.00
2019-03-01T11:48:32.738Z,240.00
2019-03-01T11:49:32.729Z,240.00
2019-03-01T11:50:32.720Z,260.00
2019-03-01T11:51:32.702Z,280.00
2019-03-01T11:52:32.738Z,300.00
2019-03-01T11:53:32.686Z,320.00
2019-03-01T11:54:32.680Z,360.00
2019-03-01T11:55:32.665Z,416.00
2019-03-01T11:56:32.664Z,432.00
2019-03-01T11:57:32.675Z,416.00
2019-03-01T11:58:32.632Z,400.00
2019-03-01T11:59:32.621Z,376.00
2019-03-01T12:00:32.605Z,336.00
2019-03-01T12:01:32.592Z,320.00
2019-03-01T12:02:32.617Z,312.00
2019-03-01T12:03:32.577Z,292.00
2019-03-01T12:04:32.562Z,276.00
2019-03-01T12:05:32.595Z,252.00
2019-03-01T12:06:32.546Z,240.00
2019-03-01T12:07:32.553Z,240.00
2019-03-01T12:08:32.539Z,244.00
2019-03-01T12:09:32.512Z,244.00
2019-03-01T12:10:32.492Z,244.00
2019-03-01T12:11:32.495Z,244.00
2019-03-01T12:12:32.531Z,276.00
2019-03-01T12:13:32.471Z,328.00
2019-03-01T12:14:32.483Z,396.00
2019-03-01T12:15:32.441Z,464.00
2019-03-01T12:16:32.429Z,520.00
2019-03-01T12:17:32.456Z,564.00
2019-03-01T12:18:32.420Z,596.00
2019-03-01T12:19:32.431Z,608.00
2019-03-01T12:20:32.415Z,604.00
2019-03-01T12:21:32.373Z,576.00
2019-03-01T12:22:32.367Z,576.00
2019-03-01T12:23:32.379Z,580.00
2019-03-01T12:24:32.348Z,564.00
2019-03-01T12:25:32.354Z,536.00
2019-03-01T12:26:32.328Z,524.00
2019-03-01T12:27:32.372Z,516.00
2019-03-01T12:28:32.300Z,520.00
2019-03-01T12:29:32.352Z,488.00
2019-03-01T12:30:32.274Z,472.00
2019-03-01T12:31:32.281Z,456.00
2019-03-01T12:32:32.285Z,444.00
2019-03-01T12:33:32.243Z,420.00
2019-03-01T12:34:32.245Z,420.00
2019-03-01T12:35:32.241Z,464.00
2019-03-01T12:36:32.213Z,528.00
2019-03-01T12:37:32.225Z,568.00
2019-03-01T12:38:32.195Z,572.00
2019-03-01T12:39:32.176Z,560.00
2019-03-01T12:40:32.181Z,572.00
2019-03-01T12:41:32.177Z,640.00
2019-03-01T12:42:32.154Z,680.00
2019-03-01T12:43:32.135Z,672.00
2019-03-01T12:44:32.134Z,660.00
2019-03-01T12:45:32.146Z,632.00
2019-03-01T12:46:32.101Z,596.00
2019-03-01T12:47:32.094Z,552.00
2019-03-01T12:48:32.103Z,524.00
2019-03-01T12:49:32.066Z,500.00
2019-03-01T12:50:32.083Z,476.00
2019-03-01T12:51:32.059Z,428.00
2019-03-01T12:52:32.038Z,364.00
2019-03-01T12:53:32.059Z,336.00